createdAt,value
2022-11-05T00:02:23.863Z,97920.25
2022-11-05T00:05:08.719Z,97929.44
2022-11-05T00:08:00.215Z,97939.00
2022-11-05T00:10:29.709Z,97933.84
2022-11-05T00:13:30.815Z,97935.44
2022-11-05T00:16:15.891Z,97929.31
2022-11-05T00:18:42.299Z,97942.16
2022-11-05T00:21:29.016Z,97941.34
2022-11-05T00:24:14.128Z,97938.69
2022-11-05T00:26:40.561Z,97944.06
2022-11-05T00:29:07.383Z,97944.00
2022-11-05T00:31:33.805Z,97944.16
2022-11-05T00:34:00.198Z,97951.81
2022-11-05T00:36:26.634Z,97954.63
2022-11-05T00:38:53.048Z,97955.09
2022-11-05T00:41:19.488Z,97949.94
2022-11-05T00:44:04.731Z,97965.44
2022-11-05T00:46:31.137Z,97960.56
2022-11-05T00:49:15.880Z,97956.28
2022-11-05T00:51:42.317Z,97960.13
2022-11-05T00:54:08.727Z,97964.84
2022-11-05T00:56:35.108Z,97957.84
2022-11-05T00:59:01.554Z,97962.34
2022-11-05T01:01:27.995Z,97966.47
2022-11-05T01:03:54.610Z,97974.63
2022-11-05T01:06:20.978Z,97973.13
2022-11-05T01:08:47.530Z,97972.38
2022-11-05T01:11:35.834Z,97975.03
2022-11-05T01:14:08.060Z,97986.69
2022-11-05T01:16:35.209Z,97984.66
2022-11-05T01:19:02.354Z,97983.84
2022-11-05T01:21:28.794Z,97992.19
2022-11-05T01:23:55.264Z,97992.41
2022-11-05T01:26:21.960Z,98005.94
2022-11-05T01:28:55.981Z,98003.28
2022-11-05T01:31:24.047Z,98012.44
2022-11-05T01:33:50.976Z,98010.03
2022-11-05T01:36:18.233Z,98005.09
2022-11-05T01:38:45.077Z,98009.59
2022-11-05T01:41:11.735Z,98014.50
2022-11-05T01:43:54.480Z,98005.94
2022-11-05T01:46:33.513Z,98005.75
2022-11-05T01:49:10.734Z,98012.03
2022-11-05T01:51:37.357Z,98017.19
2022-11-05T01:54:09.714Z,98024.38
2022-11-05T01:56:40.872Z,98023.31
2022-11-05T01:59:10.968Z,98022.47
2022-11-05T02:01:38.069Z,98009.28
2022-11-05T02:04:08.588Z,98034.53
2022-11-05T02:06:38.630Z,98030.88
2022-11-05T02:09:22.243Z,98031.69
2022-11-05T02:11:50.000Z,98035.16
2022-11-05T02:14:16.522Z,98035.34
2022-11-05T02:16:52.717Z,98036.78
2022-11-05T02:19:21.756Z,98049.69
2022-11-05T02:22:08.003Z,98049.31
2022-11-05T02:24:49.350Z,98043.66
2022-11-05T02:27:34.431Z,98050.13
2022-11-05T02:30:04.395Z,98054.22
2022-11-05T02:32:54.574Z,98054.22
2022-11-05T02:35:35.231Z,98056.09
2022-11-05T02:38:09.365Z,98048.97
2022-11-05T02:41:04.969Z,98050.19
2022-11-05T02:43:45.393Z,98055.13
2022-11-05T02:46:39.669Z,98064.13
2022-11-05T02:49:27.301Z,98071.50
2022-11-05T02:51:58.456Z,98069.06
2022-11-05T02:54:51.411Z,98071.94
2022-11-05T02:57:20.653Z,98065.41
2022-11-05T02:59:47.073Z,98075.22
2022-11-05T03:02:13.705Z,98071.94
2022-11-05T03:04:40.686Z,98070.34
2022-11-05T03:07:19.286Z,98076.66
2022-11-05T03:10:10.095Z,98079.72
2022-11-05T03:12:56.964Z,98081.97
2022-11-05T03:15:52.096Z,98085.03
2022-11-05T03:18:24.901Z,98087.53
2022-11-05T03:21:01.200Z,98099.16
2022-11-05T03:23:39.516Z,98093.47
2022-11-05T03:26:09.852Z,98103.69
2022-11-05T03:28:40.895Z,98107.59
2022-11-05T03:31:08.328Z,98104.50
2022-11-05T03:33:38.912Z,98107.81
2022-11-05T03:36:11.635Z,98115.56
2022-11-05T03:38:43.502Z,98116.19
2022-11-05T03:41:14.060Z,98111.69
2022-11-05T03:43:46.841Z,98115.97
2022-11-05T03:46:36.112Z,98117.84
2022-11-05T03:49:06.356Z,98132.13
2022-11-05T03:51:57.957Z,98126.03
2022-11-05T03:54:24.674Z,98133.38
2022-11-05T03:57:03.235Z,98136.03
2022-11-05T03:59:32.315Z,98141.16
2022-11-05T04:01:58.823Z,98143.16
2022-11-05T04:04:25.461Z,98137.44
2022-11-05T04:07:10.490Z,98140.31
2022-11-05T04:09:55.515Z,98152.38
2022-11-05T04:12:40.793Z,98146.88
2022-11-05T04:15:07.949Z,98160.31
2022-11-05T04:17:34.359Z,98151.75
2022-11-05T04:20:19.485Z,98154.84
2022-11-05T04:23:04.277Z,98148.50
2022-11-05T04:25:30.681Z,98152.59
2022-11-05T04:28:00.601Z,98160.31
2022-11-05T04:30:27.443Z,98156.06
2022-11-05T04:33:22.916Z,98151.97
2022-11-05T04:35:49.380Z,98159.72
2022-11-05T04:38:18.628Z,98159.53
2022-11-05T04:40:46.579Z,98155.47
2022-11-05T04:43:19.467Z,98162.19
2022-11-05T04:45:46.362Z,98156.09
2022-11-05T04:48:12.956Z,98166.28
2022-11-05T04:50:39.571Z,98173.84
2022-11-05T04:53:06.034Z,98168.34
2022-11-05T04:55:32.404Z,98172.63
2022-11-05T07:49:59.449Z,98369.81
2022-11-05T07:52:25.882Z,98377.66
2022-11-05T07:54:52.366Z,98379.63
2022-11-05T07:57:18.790Z,98386.91
2022-11-05T07:59:45.865Z,98386.00
2022-11-05T08:02:12.779Z,98390.19
2022-11-05T08:04:40.296Z,98387.38
2022-11-05T08:07:06.694Z,98388.09
2022-11-05T08:09:33.096Z,98387.13
2022-11-05T08:12:02.806Z,98390.47
2022-11-05T08:14:30.852Z,98393.00
2022-11-05T08:16:58.540Z,98387.38
2022-11-05T08:19:24.933Z,98397.91
2022-11-05T08:21:51.428Z,98403.53
2022-11-05T08:24:17.893Z,98412.66
2022-11-05T08:26:44.368Z,98414.28
2022-11-05T08:29:10.788Z,98406.97
2022-11-05T08:31:37.211Z,98405.47
2022-11-05T08:34:03.627Z,98411.22
2022-11-05T08:36:30.582Z,98417.47
2022-11-05T08:38:56.949Z,98412.44
2022-11-05T08:41:24.289Z,98415.94
2022-11-05T08:43:50.765Z,98416.91
2022-11-05T08:46:17.169Z,98414.13
2022-11-05T08:48:43.548Z,98415.44
2022-11-05T08:51:09.957Z,98421.84
2022-11-05T08:53:36.353Z,98420.09
2022-11-05T08:56:02.859Z,98427.66
2022-11-05T08:58:29.342Z,98430.31
2022-11-05T09:00:58.956Z,98432.75
2022-11-05T09:03:28.339Z,98435.06
2022-11-05T09:05:54.740Z,98433.84
2022-11-05T09:08:23.853Z,98437.66
2022-11-05T09:10:50.319Z,98434.25
2022-11-05T09:13:19.286Z,98438.06
2022-11-05T09:15:50.422Z,98432.63
2022-11-05T09:18:18.565Z,98429.84
2022-11-05T09:20:45.152Z,98442.03
2022-11-05T09:23:14.937Z,98435.06
2022-11-05T09:25:41.641Z,98443.38
2022-11-05T09:28:16.527Z,98441.75
2022-11-05T09:30:49.404Z,98447.38
2022-11-05T09:33:17.533Z,98441.75
2022-11-05T09:35:44.456Z,98444.69
2022-11-05T09:38:11.094Z,98445.84
2022-11-05T09:40:45.551Z,98442.66
2022-11-05T09:43:19.996Z,98451.78
2022-11-05T09:45:51.593Z,98446.13
2022-11-05T09:48:20.860Z,98454.25
2022-11-05T09:50:47.654Z,98452.22
2022-11-05T09:53:18.036Z,98455.59
2022-11-05T09:55:56.391Z,98460.06
2022-11-05T09:58:29.136Z,98461.41
2022-11-05T10:00:57.284Z,98468.34
2022-11-05T10:03:26.203Z,98472.22
2022-11-05T10:05:54.469Z,98480.50
2022-11-05T10:08:29.772Z,98487.69
2022-11-05T10:11:05.498Z,98481.69
2022-11-05T10:16:37.465Z,98485.84
2022-11-05T10:19:16.710Z,98474.69
2022-11-05T10:24:30.078Z,98494.44
2022-11-05T10:26:57.541Z,98500.22
2022-11-05T10:29:29.485Z,98454.78
2022-11-05T10:32:01.425Z,98500.03
2022-11-05T10:34:33.082Z,98491.66
2022-11-05T10:36:59.767Z,98495.50
2022-11-05T10:39:27.796Z,98495.81
2022-11-05T10:42:01.856Z,98494.25
2022-11-05T10:44:51.100Z,98494.91
2022-11-05T10:47:42.361Z,98499.94
2022-11-05T10:50:21.577Z,98493.94
2022-11-05T10:53:39.057Z,98493.72
2022-11-05T12:41:10.322Z,98496.59
2022-11-05T12:43:54.970Z,98501.59
2022-11-05T12:46:38.316Z,98516.00
2022-11-05T12:49:42.948Z,98500.88
2022-11-05T12:52:32.430Z,98510.94
2022-11-05T12:55:17.398Z,98505.38
2022-11-05T12:57:47.915Z,98509.53
2022-11-05T13:00:17.409Z,98503.00
2022-11-05T13:03:11.193Z,98503.44
2022-11-05T13:05:43.315Z,98503.09
2022-11-05T13:08:21.704Z,98499.81
2022-11-05T13:10:55.514Z,98499.44
2022-11-05T13:13:31.178Z,98504.16
2022-11-05T13:16:04.836Z,98505.16
2022-11-05T13:18:42.284Z,98507.75
2022-11-05T13:21:10.018Z,98511.25
2022-11-05T13:23:51.633Z,98506.91
2022-11-05T13:26:26.543Z,98504.66
2022-11-05T13:29:01.916Z,98506.81
2022-11-05T13:31:34.690Z,98510.94
2022-11-05T13:34:06.142Z,98515.28
2022-11-05T13:37:06.438Z,98512.28
2022-11-05T13:39:37.581Z,98516.84
2022-11-05T13:42:29.179Z,98505.75
2022-11-05T13:45:13.034Z,98510.50
2022-11-05T13:47:53.760Z,98519.28
2022-11-05T13:50:44.564Z,98524.59
2022-11-05T13:53:45.552Z,98521.38
2022-11-05T13:56:21.757Z,98522.88
2022-11-05T13:59:18.633Z,98523.47
2022-11-05T14:01:54.142Z,98519.59
2022-11-05T14:04:29.887Z,98521.25
2022-11-05T14:07:07.348Z,98529.47
2022-11-05T14:09:35.892Z,98526.59
2022-11-05T14:12:04.663Z,98533.78
2022-11-05T14:14:43.018Z,98537.03
2022-11-05T14:17:09.418Z,98535.03
2022-11-05T14:19:49.641Z,98529.28
2022-11-05T14:22:31.358Z,98530.09
2022-11-05T14:24:58.962Z,98527.84
2022-11-05T14:27:25.340Z,98522.94
2022-11-05T14:29:51.734Z,98522.13
2022-11-05T14:32:20.688Z,98518.25
2022-11-05T14:35:15.707Z,98521.75
2022-11-05T14:37:52.285Z,98528.69
2022-11-05T14:40:21.483Z,98530.09
2022-11-05T14:42:54.646Z,98520.50
2022-11-05T14:45:41.571Z,98520.28
2022-11-05T14:48:35.644Z,98516.59
2022-11-05T14:51:02.296Z,98509.88
2022-11-05T14:53:35.540Z,98518.28
2022-11-05T14:56:06.760Z,98508.69
2022-11-05T14:58:39.089Z,98507.03
2022-11-05T15:01:14.756Z,98494.53
2022-11-05T15:03:45.920Z,98497.41
2022-11-05T15:06:39.198Z,98496.38
2022-11-05T15:09:17.138Z,98503.53
2022-11-05T15:11:56.860Z,98506.00
2022-11-05T15:14:55.657Z,98504.78
2022-11-05T15:17:31.830Z,98505.63
2022-11-05T15:20:08.504Z,98502.56
2022-11-05T15:22:40.741Z,98506.44
2022-11-05T15:25:17.085Z,98513.00
2022-11-05T15:27:54.833Z,98509.94
2022-11-05T15:30:23.596Z,98504.44
2022-11-05T15:32:51.107Z,98508.53
2022-11-05T15:35:24.656Z,98496.63
2022-11-05T15:37:55.946Z,98510.53
2022-11-05T15:40:28.426Z,98502.38
2022-11-05T15:43:25.961Z,98508.13
2022-11-05T15:46:07.935Z,98506.88
2022-11-05T15:48:35.712Z,98518.53
2022-11-05T15:51:02.404Z,98528.56
2022-11-05T15:54:08.249Z,98510.38
2022-11-05T15:56:40.427Z,98516.69
2022-11-05T15:59:19.357Z,98518.75
2022-11-05T16:01:49.369Z,98521.00
2022-11-05T16:04:22.036Z,98517.31
2022-11-05T16:06:50.902Z,98514.25
2022-11-05T16:09:27.725Z,98516.06
2022-11-05T16:12:24.129Z,98520.78
2022-11-05T16:15:06.207Z,98524.66
2022-11-05T16:17:47.975Z,98525.69
2022-11-05T16:20:20.346Z,98527.91
2022-11-05T16:22:50.190Z,98526.09
2022-11-05T16:25:31.938Z,98530.13
2022-11-05T16:27:59.789Z,98532.63
2022-11-05T16:30:26.725Z,98536.50
2022-11-05T16:32:53.786Z,98535.06
2022-11-05T16:35:23.141Z,98537.06
2022-11-05T16:37:52.398Z,98530.44
2022-11-05T16:40:21.533Z,98525.75
2022-11-05T16:42:51.230Z,98530.06
2022-11-05T16:45:20.607Z,98529.84
2022-11-05T16:47:47.873Z,98526.56
2022-11-05T16:50:26.340Z,98528.63
2022-11-05T16:52:52.934Z,98534.47
2022-11-05T16:55:20.082Z,98544.41
2022-11-05T16:57:51.188Z,98536.84
2022-11-05T17:00:20.001Z,98538.41
2022-11-05T17:02:47.345Z,98538.03
2022-11-05T17:05:29.036Z,98530.06
2022-11-05T17:07:56.378Z,98523.50
2022-11-05T17:10:25.005Z,98543.50
2022-11-05T17:12:51.751Z,98538.19
2022-11-05T17:15:22.438Z,98547.38
2022-11-05T17:17:49.497Z,98548.03
2022-11-05T17:20:25.230Z,98547.81
2022-11-05T17:22:51.690Z,98561.69
2022-11-05T17:25:18.079Z,98565.72
2022-11-05T17:27:44.579Z,98559.03
2022-11-05T17:30:12.219Z,98563.72
2022-11-05T17:32:38.759Z,98576.75
2022-11-05T17:35:07.883Z,98564.09
2022-11-05T17:37:34.342Z,98580.25
2022-11-05T17:40:01.406Z,98581.50
2022-11-05T17:42:28.166Z,98565.19
2022-11-05T17:44:55.073Z,98584.84
2022-11-05T17:47:21.458Z,98579.97
2022-11-05T17:49:48.001Z,98571.44
2022-11-05T17:52:14.468Z,98578.31
2022-11-05T17:54:40.923Z,98580.25
2022-11-05T17:57:07.790Z,98582.06
2022-11-05T17:59:34.277Z,98581.63
2022-11-05T18:02:00.858Z,98583.03
2022-11-05T18:04:27.388Z,98569.63
2022-11-05T18:06:53.853Z,98570.41
2022-11-05T18:09:20.260Z,98567.53
2022-11-05T18:11:46.786Z,98567.53
2022-11-05T18:14:13.277Z,98573.56
2022-11-05T18:16:39.709Z,98579.28
2022-11-05T18:19:06.289Z,98573.19
2022-11-05T18:21:32.701Z,98573.56
2022-11-05T18:24:02.521Z,98580.72
2022-11-05T18:26:28.968Z,98582.81
2022-11-05T18:28:55.403Z,98586.03
2022-11-05T18:31:21.906Z,98585.09
2022-11-05T18:33:50.143Z,98581.97
2022-11-05T18:36:27.487Z,98581.03
2022-11-05T18:38:54.414Z,98582.63
2022-11-05T18:41:21.532Z,98577.56
2022-11-05T18:43:48.007Z,98579.22
2022-11-05T18:46:35.899Z,98576.19
2022-11-05T18:49:01.758Z,98580.03
2022-11-05T18:51:28.301Z,98592.34
2022-11-05T18:53:55.816Z,98583.56
2022-11-05T18:56:22.884Z,98591.59
2022-11-05T18:58:49.836Z,98593.78
2022-11-05T19:01:19.147Z,98583.38
2022-11-05T19:03:46.711Z,98589.75
2022-11-05T19:06:13.246Z,98585.66
2022-11-05T19:08:39.962Z,98586.59
2022-11-05T19:11:09.053Z,98587.78
2022-11-05T19:13:35.551Z,98591.19
2022-11-05T19:16:02.442Z,98581.78
2022-11-05T19:18:28.922Z,98583.78
2022-11-05T19:20:55.708Z,98580.84
2022-11-05T19:23:22.146Z,98576.56
2022-11-05T19:25:48.515Z,98586.16
2022-11-05T19:28:15.470Z,98583.97
2022-11-05T19:30:42.082Z,98581.56
2022-11-05T19:33:08.538Z,98583.66
2022-11-05T19:35:41.250Z,98588.97
2022-11-05T19:38:07.996Z,98589.69
2022-11-05T19:40:36.535Z,98590.16
2022-11-05T19:43:02.970Z,98588.69
2022-11-05T19:45:44.141Z,98583.47
2022-11-05T19:48:16.158Z,98587.66
2022-11-05T19:50:45.410Z,98586.31
2022-11-05T19:53:11.830Z,98585.84
2022-11-05T19:55:40.534Z,98564.91
2022-11-05T19:58:08.028Z,98582.31
2022-11-05T20:00:35.142Z,98579.66
2022-11-05T20:03:01.888Z,98580.66
2022-11-05T20:05:28.497Z,98581.47
2022-11-05T20:07:55.672Z,98579.75
2022-11-05T20:10:22.290Z,98578.75
2022-11-05T20:12:49.008Z,98573.81
2022-11-05T20:15:15.809Z,98572.28
2022-11-05T20:17:42.225Z,98569.16
2022-11-05T20:20:09.161Z,98574.00
2022-11-05T20:22:35.539Z,98567.00
2022-11-05T20:25:02.542Z,98568.63
2022-11-05T20:27:29.107Z,98575.63
2022-11-05T20:29:55.558Z,98570.16
2022-11-05T20:32:21.990Z,98585.38
2022-11-05T20:34:50.204Z,98576.63
2022-11-05T20:37:16.573Z,98580.44
2022-11-05T20:39:43.001Z,98580.66
2022-11-05T20:42:09.382Z,98576.63
2022-11-05T20:44:35.816Z,98575.44
2022-11-05T20:47:02.261Z,98574.94
2022-11-05T20:49:28.692Z,98579.28
2022-11-05T20:51:55.538Z,98578.47
2022-11-05T20:54:22.814Z,98585.94
2022-11-05T20:56:49.540Z,98575.72
2022-11-05T20:59:15.999Z,98587.63
2022-11-05T21:01:42.554Z,98582.09
2022-11-05T21:04:09.338Z,98576.81
2022-11-05T21:06:35.932Z,98572.78
2022-11-05T21:09:03.146Z,98579.25
2022-11-05T21:11:49.577Z,98576.97
2022-11-05T21:14:16.009Z,98586.63
2022-11-05T21:16:42.418Z,98582.81
2022-11-05T21:19:08.813Z,98584.09
2022-11-05T21:21:40.087Z,98575.97
2022-11-05T21:24:07.985Z,98578.06
2022-11-05T21:26:34.425Z,98572.44
2022-11-05T21:29:00.817Z,98575.72
2022-11-05T21:31:27.239Z,98580.84
2022-11-05T21:33:55.284Z,98575.38
2022-11-05T21:36:21.944Z,98583.66
2022-11-05T21:38:48.387Z,98583.19
2022-11-05T21:41:14.794Z,98577.72
2022-11-05T21:43:42.281Z,98584.47
2022-11-05T21:46:11.959Z,98588.22
2022-11-05T21:48:38.728Z,98567.50
2022-11-05T21:51:24.405Z,98582.72
2022-11-05T21:54:09.845Z,98585.22
2022-11-05T21:56:55.251Z,98587.44
2022-11-05T21:59:42.097Z,98582.53
2022-11-05T22:02:11.204Z,98577.50
2022-11-05T22:04:41.465Z,98580.09
2022-11-05T22:07:10.432Z,98560.84
2022-11-05T22:09:36.937Z,98581.16
2022-11-05T22:12:03.902Z,98581.03
2022-11-05T22:14:30.799Z,98550.28
2022-11-05T22:16:58.360Z,98579.56
2022-11-05T22:19:25.695Z,98582.94
2022-11-05T22:21:52.132Z,98584.91
2022-11-05T22:24:19.406Z,98566.56
2022-11-05T22:26:46.330Z,98573.00
2022-11-05T22:29:13.055Z,98574.22
2022-11-05T22:31:40.097Z,98570.94
2022-11-05T22:34:06.834Z,98568.56
2022-11-05T22:36:34.530Z,98564.13
2022-11-05T22:39:01.331Z,98557.41
2022-11-05T22:41:28.405Z,98553.69
2022-11-05T22:43:55.677Z,98564.31
2022-11-05T22:46:23.771Z,98574.56
2022-11-05T22:48:51.051Z,98566.06
2022-11-05T22:51:29.515Z,98567.09
2022-11-05T22:53:56.550Z,98570.19
2022-11-05T22:56:25.482Z,98574.00
2022-11-05T22:58:52.333Z,98576.97
2022-11-05T23:01:20.457Z,98581.97
2022-11-05T23:03:48.279Z,98573.84
2022-11-05T23:06:38.747Z,98576.81
2022-11-05T23:09:30.088Z,98564.09
2022-11-05T23:11:57.437Z,98563.03
2022-11-05T23:14:24.136Z,98553.38
2022-11-05T23:17:09.047Z,98556.28
2022-11-05T23:19:54.776Z,98555.94
2022-11-05T23:22:43.384Z,98550.16
2022-11-05T23:25:12.766Z,98548.78
2022-11-05T23:27:40.755Z,98555.88
2022-11-05T23:30:11.522Z,98549.88
2022-11-05T23:32:38.483Z,98553.63
2022-11-05T23:35:05.283Z,98555.75
2022-11-05T23:37:50.908Z,98556.91
2022-11-05T23:40:23.520Z,98538.84
2022-11-05T23:43:08.859Z,98556.97
2022-11-05T23:45:58.604Z,98557.22
2022-11-05T23:48:30.764Z,98560.16
2022-11-05T23:51:04.668Z,98543.97
2022-11-05T23:53:34.065Z,98543.72
2022-11-05T23:56:06.618Z,98540.47
2022-11-05T23:58:33.832Z,98534.56
